Guarani, Argentina
Current Conditions -  °F | °C
As of 12:00 PM on Saturday 25 Oct 2014 (Local Time) from SGEN Reporting Station
Scattered Clouds Scattered Clouds  
Wind Chill: 90°   Ceiling: Unl
Heat Index: 90°   Visibility: 6mi
Dew Point: 63°   Wind: 9mph
Humidity: 40%   Direction: 90°E
Pressure: 29.85"   Gusts: NA
Location:  27.52°S, 55.17°W
Report Text: SGEN 251500Z 09008KT 9999 FEW033 SCT070 32/17 Q1011
Loading
Personal Weather Stations






























Interactive Weather Map New forecast layout! Learn more

10-Day Weather Forecast

Advertisements
Track Severe Weather on mobile